Time;durP1;ratioP1;P1;durP2;ratioP2;P2;SDS_P1;SDS_P2;PMS_P1;PMS_P2;Temp;Humidity;BMP_temperature;BMP_pressure;BME280_temperature;BME280_humidity;BME280_pressure;Samples;Min_cycle;Max_cycle;Signal;HPM_P1;HPM_P2
2021/06/22 00:00:18;;;;;;;9.90;3.67;;;12.30;99.90;;;;;;5072348;28;20497;-78
2021/06/22 00:02:45;;;;;;;10.43;4.38;;;12.30;99.90;;;;;;5091959;28;20115;-81
2021/06/22 00:05:11;;;;;;;14.57;4.68;;;12.30;99.90;;;;;;5093023;28;20043;-77
2021/06/22 00:07:37;;;;;;;7.00;4.03;;;12.30;99.90;;;;;;5062813;28;20090;-80
2021/06/22 00:10:05;;;;;;;9.25;4.32;;;12.30;99.90;;;;;;5070450;28;20032;-79
2021/06/22 00:12:31;;;;;;;8.05;3.75;;;12.30;99.90;;;;;;5054125;28;20100;-78
2021/06/22 00:14:58;;;;;;;8.00;4.05;;;12.30;99.90;;;;;;5069778;28;20060;-79
2021/06/22 00:17:24;;;;;;;9.57;4.30;;;12.30;99.90;;;;;;5084707;28;20124;-77
2021/06/22 00:19:49;;;;;;;9.13;4.45;;;12.30;99.90;;;;;;5074338;28;20047;-79
2021/06/22 00:22:15;;;;;;;12.65;5.13;;;12.30;99.90;;;;;;5072419;28;20031;-77
2021/06/22 00:24:41;;;;;;;10.27;4.93;;;12.30;99.90;;;;;;5074458;28;20124;-80
2021/06/22 00:27:07;;;;;;;15.93;5.88;;;12.20;99.90;;;;;;5062442;28;20054;-79
2021/06/22 00:29:34;;;;;;;14.27;6.22;;;12.20;99.90;;;;;;5057172;28;20036;-78
2021/06/22 00:31:59;;;;;;;10.30;6.18;;;12.10;99.90;;;;;;5044930;28;20047;-77
2021/06/22 00:34:25;;;;;;;18.30;7.60;;;12.10;99.90;;;;;;5038926;28;20148;-78
2021/06/22 00:36:51;;;;;;;12.02;7.28;;;12.10;99.90;;;;;;5053316;28;20032;-77
2021/06/22 00:39:17;;;;;;;11.50;7.50;;;11.90;99.90;;;;;;5037707;28;20098;-79
2021/06/22 00:41:43;;;;;;;17.00;8.88;;;11.90;99.90;;;;;;5036090;28;20033;-80
2021/06/22 00:44:10;;;;;;;18.63;8.80;;;11.80;99.90;;;;;;5054057;28;20032;-78
2021/06/22 00:46:37;;;;;;;13.10;8.15;;;11.70;99.90;;;;;;5085033;28;20101;-78
2021/06/22 00:49:04;;;;;;;14.20;8.70;;;11.60;99.90;;;;;;5054956;28;20047;-77
2021/06/22 00:51:29;;;;;;;12.80;9.18;;;11.60;99.90;;;;;;5085778;28;20039;-77
2021/06/22 00:53:56;;;;;;;18.10;9.60;;;11.50;99.90;;;;;;5091892;28;20036;-80
2021/06/22 00:56:23;;;;;;;15.02;9.73;;;11.40;99.90;;;;;;5060545;28;20537;-77
2021/06/22 00:58:51;;;;;;;19.67;10.98;;;11.40;99.90;;;;;;5090246;28;20036;-77
2021/06/22 01:01:17;;;;;;;17.20;10.15;;;11.30;99.90;;;;;;5091866;28;20085;-78
2021/06/22 01:03:43;;;;;;;17.70;9.63;;;11.20;99.90;;;;;;5073312;28;20036;-77
2021/06/22 01:06:12;;;;;;;19.70;9.90;;;11.10;99.90;;;;;;5091425;28;20036;-81
2021/06/22 01:08:39;;;;;;;17.88;10.05;;;11.00;99.90;;;;;;5070897;28;20474;-80
2021/06/22 01:11:05;;;;;;;17.25;10.30;;;11.00;99.90;;;;;;5083848;28;20036;-79
2021/06/22 01:13:31;;;;;;;17.70;9.95;;;10.90;99.90;;;;;;5072725;28;20416;-79
2021/06/22 01:15:57;;;;;;;17.73;10.18;;;10.80;99.90;;;;;;5091174;28;20032;-78
2021/06/22 01:18:23;;;;;;;17.77;10.55;;;10.70;99.90;;;;;;5066503;28;20051;-79
2021/06/22 01:20:48;;;;;;;18.35;10.75;;;10.60;99.90;;;;;;5047962;28;20473;-79
2021/06/22 01:23:14;;;;;;;18.10;11.00;;;10.60;99.90;;;;;;5091466;28;20044;-79
2021/06/22 01:25:40;;;;;;;19.38;11.10;;;10.50;99.90;;;;;;5089552;28;20102;-79
2021/06/22 01:28:06;;;;;;;;;;;10.40;99.90;;;;;;5073545;28;20507;-77
2021/06/22 01:30:34;;;;;;;19.73;11.55;;;10.30;99.90;;;;;;5091216;28;19920;-80
2021/06/22 01:33:00;;;;;;;19.77;11.00;;;10.30;99.90;;;;;;5072779;28;20420;-77
2021/06/22 01:35:28;;;;;;;18.48;11.73;;;10.30;99.90;;;;;;5090664;28;20155;-78
2021/06/22 01:38:08;;;;;;;19.77;11.50;;;10.30;99.90;;;;;;5048966;28;20107;-77
2021/06/22 01:40:42;;;;;;;21.27;12.30;;;10.30;99.90;;;;;;5054745;28;20043;-79
2021/06/22 01:43:08;;;;;;;19.90;12.65;;;10.30;99.90;;;;;;5091087;28;20032;-78
2021/06/22 01:45:34;;;;;;;19.75;12.38;;;10.20;99.90;;;;;;5072580;28;20074;-80
2021/06/22 01:48:00;;;;;;;19.65;11.93;;;10.20;99.90;;;;;;5090369;28;20039;-80
2021/06/22 01:50:26;;;;;;;21.05;12.52;;;10.10;99.90;;;;;;5058832;28;20036;-78
2021/06/22 01:52:52;;;;;;;22.23;13.32;;;10.10;99.90;;;;;;5090425;28;20039;-79
2021/06/22 01:55:39;;;;;;;22.73;13.35;;;10.10;99.90;;;;;;5068446;28;20135;-80
2021/06/22 01:58:16;;;;;;;29.20;13.60;;;10.10;99.90;;;;;;5055421;28;20041;-79
2021/06/22 02:00:43;;;;;;;21.98;12.85;;;10.10;99.90;;;;;;5087369;28;20039;-81
2021/06/22 02:03:15;;;;;;;22.58;13.52;;;10.20;99.90;;;;;;5090797;28;20474;-78
2021/06/22 02:05:41;;;;;;;21.88;13.15;;;10.10;99.90;;;;;;5090138;28;20126;-79
2021/06/22 02:08:07;;;;;;;28.30;12.55;;;10.10;99.90;;;;;;5088972;28;20036;-78
2021/06/22 02:10:33;;;;;;;;;;;10.10;99.90;;;;;;5079878;28;20050;-78
2021/06/22 02:12:59;;;;;;;24.17;14.27;;;10.00;99.90;;;;;;5090493;28;19924;-78
2021/06/22 02:15:25;;;;;;;22.70;12.88;;;10.10;99.90;;;;;;5090914;28;20059;-79
2021/06/22 02:17:51;;;;;;;22.42;12.23;;;10.00;99.90;;;;;;5059398;28;20040;-78
2021/06/22 02:20:18;;;;;;;23.17;12.48;;;10.00;99.90;;;;;;5083141;28;20032;-79
2021/06/22 02:22:44;;;;;;;22.42;12.55;;;10.00;99.90;;;;;;5068718;28;20036;-78
2021/06/22 02:25:11;;;;;;;24.30;12.88;;;9.90;99.90;;;;;;5089478;28;20035;-79
2021/06/22 02:27:38;;;;;;;24.08;13.27;;;9.90;99.90;;;;;;5090817;28;20071;-78
2021/06/22 02:30:08;;;;;;;22.25;12.45;;;9.70;99.90;;;;;;5090793;28;20089;-81
2021/06/22 02:32:35;;;;;;;22.10;12.27;;;9.80;99.90;;;;;;5090083;28;20108;-79
2021/06/22 02:35:02;;;;;;;21.95;12.45;;;9.80;99.90;;;;;;5061624;28;20087;-78
2021/06/22 02:37:28;;;;;;;22.80;12.55;;;9.80;99.90;;;;;;5087906;28;20119;-78
2021/06/22 02:39:53;;;;;;;25.15;12.43;;;9.70;99.90;;;;;;5044361;28;20120;-77
2021/06/22 02:42:19;;;;;;;21.48;10.20;;;9.70;99.90;;;;;;5088130;28;20127;-78
2021/06/22 02:44:45;;;;;;;20.35;11.70;;;9.70;99.90;;;;;;5090087;28;20044;-78
2021/06/22 02:47:11;;;;;;;21.05;11.52;;;9.70;99.90;;;;;;5090747;28;20040;-78
2021/06/22 02:49:37;;;;;;;22.30;12.38;;;9.70;99.90;;;;;;5073216;28;20036;-79
2021/06/22 02:52:06;;;;;;;22.20;11.77;;;9.70;99.90;;;;;;5090021;28;20068;-80
2021/06/22 02:54:39;;;;;;;23.90;12.40;;;9.60;99.90;;;;;;5090934;28;20038;-77
2021/06/22 02:57:09;;;;;;;21.88;12.70;;;9.60;99.90;;;;;;5071223;28;20424;-80
2021/06/22 02:59:36;;;;;;;15.82;10.40;;;9.60;99.90;;;;;;5072623;28;20135;-78
2021/06/22 03:02:03;;;;;;;24.55;11.68;;;9.60;99.90;;;;;;5090908;28;20044;-76
2021/06/22 03:04:30;;;;;;;25.05;11.70;;;9.50;99.90;;;;;;5090656;28;20036;-79
2021/06/22 03:06:56;;;;;;;;;;;9.60;99.90;;;;;;5053066;28;20036;-78
2021/06/22 03:09:23;;;;;;;18.77;13.18;;;9.50;99.90;;;;;;5059450;28;19916;-78
2021/06/22 03:11:50;;;;;;;19.80;12.02;;;9.50;99.90;;;;;;5053788;28;20079;-80
2021/06/22 03:14:17;;;;;;;23.27;11.88;;;9.50;99.90;;;;;;5090705;28;20040;-79
2021/06/22 03:16:44;;;;;;;23.42;12.25;;;9.40;99.90;;;;;;5090176;28;20047;-80
2021/06/22 03:19:11;;;;;;;26.35;13.02;;;9.60;99.90;;;;;;5090982;28;20044;-79
2021/06/22 03:21:37;;;;;;;24.35;13.27;;;9.50;99.90;;;;;;5088497;28;20038;-78
2021/06/22 03:24:03;;;;;;;23.17;13.20;;;9.50;99.90;;;;;;5071647;28;20036;-79
2021/06/22 03:26:29;;;;;;;23.38;12.57;;;9.50;99.90;;;;;;5040609;28;20380;-78
2021/06/22 03:28:55;;;;;;;21.23;11.95;;;9.50;99.90;;;;;;5085397;28;20070;-79
2021/06/22 03:31:21;;;;;;;24.85;11.65;;;9.40;99.90;;;;;;5052341;28;20073;-80
2021/06/22 03:33:47;;;;;;;21.15;12.48;;;9.40;99.90;;;;;;5084852;28;20040;-80
2021/06/22 03:36:13;;;;;;;24.00;13.13;;;9.40;99.90;;;;;;5092198;28;20084;-77
2021/06/22 03:38:39;;;;;;;25.77;13.00;;;9.40;99.90;;;;;;5072344;28;20044;-77
2021/06/22 03:41:05;;;;;;;25.40;13.48;;;9.40;99.90;;;;;;5070021;28;20063;-78
2021/06/22 03:43:31;;;;;;;21.48;13.10;;;9.40;99.90;;;;;;5090058;28;20036;-75
2021/06/22 03:45:57;;;;;;;22.30;14.13;;;9.30;99.90;;;;;;5097961;28;20553;-79
2021/06/22 03:48:22;;;;;;;22.80;14.15;;;9.30;99.90;;;;;;5095539;28;20119;-80
2021/06/22 03:50:48;;;;;;;25.63;14.30;;;9.30;99.90;;;;;;5069155;28;20462;-78
2021/06/22 03:53:14;;;;;;;27.08;13.48;;;9.30;99.90;;;;;;5087681;28;20130;-80
2021/06/22 03:55:40;;;;;;;25.85;12.75;;;9.30;99.90;;;;;;5074645;28;20036;-78
2021/06/22 03:58:07;;;;;;;29.95;14.15;;;9.30;99.90;;;;;;5061689;28;20514;-81
2021/06/22 04:00:33;;;;;;;24.58;13.10;;;9.30;99.90;;;;;;5075565;28;20182;-77
2021/06/22 04:03:00;;;;;;;20.90;13.05;;;9.30;99.90;;;;;;5074722;28;20039;-80
2021/06/22 04:05:30;;;;;;;24.48;14.35;;;9.30;99.90;;;;;;5093218;28;20036;-78
2021/06/22 04:08:00;;;;;;;20.05;12.27;;;9.30;99.90;;;;;;5091410;28;20048;-77
2021/06/22 04:10:27;;;;;;;21.92;13.73;;;9.30;99.90;;;;;;5080435;28;20043;-80
2021/06/22 04:12:54;;;;;;;23.05;13.77;;;9.30;99.90;;;;;;5094294;28;20040;-80
2021/06/22 04:15:20;;;;;;;25.75;14.05;;;9.30;99.90;;;;;;5094965;28;20071;-78
2021/06/22 04:17:47;;;;;;;27.60;14.40;;;9.20;99.90;;;;;;5093007;28;20036;-76
2021/06/22 04:20:15;;;;;;;22.67;14.15;;;9.20;99.90;;;;;;5092276;28;20040;-80
2021/06/22 04:22:40;;;;;;;24.27;13.88;;;9.20;99.90;;;;;;5093462;28;20036;-78
2021/06/22 04:25:07;;;;;;;25.25;14.20;;;9.20;99.90;;;;;;5074159;28;20066;-79
2021/06/22 04:27:34;;;;;;;23.27;13.73;;;9.20;99.90;;;;;;5062451;28;20036;-80
2021/06/22 04:29:59;;;;;;;27.55;14.27;;;9.20;99.90;;;;;;5066444;28;20044;-79
2021/06/22 04:32:25;;;;;;;27.23;13.90;;;9.20;99.90;;;;;;5086947;28;20093;-80
2021/06/22 04:34:55;;;;;;;26.67;14.98;;;9.30;99.90;;;;;;5049480;28;20126;-80
2021/06/22 04:37:21;;;;;;;27.58;15.35;;;9.30;99.90;;;;;;5089663;28;20049;-79
2021/06/22 04:39:46;;;;;;;32.53;16.80;;;9.20;99.90;;;;;;5092283;28;20050;-81
2021/06/22 04:42:12;;;;;;;26.35;15.68;;;9.20;99.90;;;;;;5061100;28;20040;-77
2021/06/22 04:44:38;;;;;;;26.95;14.55;;;9.20;99.90;;;;;;5093328;28;20051;-77
2021/06/22 04:47:04;;;;;;;25.65;16.00;;;9.30;99.90;;;;;;5060701;28;20182;-78
2021/06/22 04:49:30;;;;;;;;;;;9.20;99.90;;;;;;5092632;28;20036;-80
2021/06/22 04:51:56;;;;;;;30.48;15.30;;;9.30;99.90;;;;;;5059914;28;19990;-81
2021/06/22 04:54:23;;;;;;;26.13;15.73;;;9.30;99.90;;;;;;5092725;28;20112;-81
2021/06/22 04:56:50;;;;;;;26.75;15.68;;;9.40;99.90;;;;;;5091081;28;20032;-78
2021/06/22 04:59:15;;;;;;;27.77;15.43;;;9.50;99.90;;;;;;5070087;28;20174;-77
2021/06/22 05:01:41;;;;;;;24.95;15.05;;;9.60;99.90;;;;;;5091700;28;20506;-76
2021/06/22 05:04:08;;;;;;;25.88;13.75;;;9.80;99.90;;;;;;5091899;28;20417;-80
2021/06/22 05:06:34;;;;;;;22.50;12.80;;;9.90;99.90;;;;;;5060937;28;20041;-80
2021/06/22 05:08:59;;;;;;;22.40;12.50;;;10.10;99.90;;;;;;5081185;28;20119;-79
2021/06/22 05:11:25;;;;;;;17.65;10.98;;;10.30;99.90;;;;;;5042787;28;20052;-81
2021/06/22 05:13:51;;;;;;;19.83;10.60;;;10.40;99.90;;;;;;5040246;28;20036;-80
2021/06/22 05:16:18;;;;;;;20.50;11.85;;;10.60;99.90;;;;;;5091940;28;20051;-80
2021/06/22 05:18:48;;;;;;;19.90;11.27;;;10.70;99.90;;;;;;5063873;28;20048;-79
2021/06/22 05:21:14;;;;;;;15.65;9.85;;;10.80;99.90;;;;;;5069734;28;20036;-77
2021/06/22 05:23:40;;;;;;;;;;;11.00;99.90;;;;;;5092323;28;20497;-79
2021/06/22 05:26:06;;;;;;;14.75;9.60;;;11.20;99.90;;;;;;5065098;28;19926;-77
2021/06/22 05:28:32;;;;;;;15.25;9.73;;;11.40;99.90;;;;;;5092228;28;20062;-80
2021/06/22 05:30:57;;;;;;;16.48;10.00;;;11.50;99.90;;;;;;5059111;28;20455;-79
2021/06/22 05:33:23;;;;;;;15.52;9.55;;;11.70;99.90;;;;;;5056066;28;20036;-79
2021/06/22 05:35:51;;;;;;;16.60;9.55;;;11.90;99.90;;;;;;5091493;28;20051;-79
2021/06/22 05:38:17;;;;;;;22.10;10.35;;;12.00;99.90;;;;;;5092969;28;20519;-78
2021/06/22 05:40:42;;;;;;;16.10;8.77;;;12.10;99.90;;;;;;5090936;28;20040;-80
2021/06/22 05:43:08;;;;;;;17.45;9.65;;;12.20;99.90;;;;;;5073375;28;20223;-80
2021/06/22 05:45:35;;;;;;;;;;;12.40;99.90;;;;;;5094546;28;20060;-78
2021/06/22 05:48:00;;;;;;;18.42;10.13;;;12.40;99.90;;;;;;5092811;28;20276;-81
2021/06/22 05:50:26;;;;;;;18.15;9.63;;;12.60;99.90;;;;;;5091120;28;20040;-78
2021/06/22 05:52:53;;;;;;;15.45;9.35;;;12.70;99.90;;;;;;5073426;28;20035;-81
2021/06/22 05:55:23;;;;;;;18.15;9.50;;;12.80;99.90;;;;;;5073099;28;20126;-78
2021/06/22 05:57:52;;;;;;;13.48;7.93;;;12.90;99.90;;;;;;5091391;28;20039;-77
2021/06/22 06:00:21;;;;;;;14.88;8.32;;;13.00;99.90;;;;;;5080490;28;20032;-78
2021/06/22 06:02:48;;;;;;;12.88;7.78;;;13.10;99.90;;;;;;5091121;28;20070;-79
2021/06/22 06:05:15;;;;;;;12.18;7.80;;;13.20;99.90;;;;;;5058503;28;20120;-77
2021/06/22 06:07:40;;;;;;;;;;;13.30;99.90;;;;;;5091696;28;20042;-80
2021/06/22 06:10:07;;;;;;;14.05;7.38;;;13.30;99.90;;;;;;5089684;28;20432;-81
2021/06/22 06:12:33;;;;;;;14.93;7.60;;;13.40;99.90;;;;;;5060421;28;20401;-80
2021/06/22 06:14:59;;;;;;;13.18;7.18;;;13.50;99.90;;;;;;5089855;28;20032;-77
2021/06/22 06:17:25;;;;;;;13.68;7.78;;;13.60;99.90;;;;;;5060383;28;20622;-78
2021/06/22 06:19:51;;;;;;;12.13;6.40;;;13.80;99.90;;;;;;5071394;28;20036;-77
2021/06/22 06:22:19;;;;;;;15.73;7.32;;;14.10;99.90;;;;;;5071426;28;20050;-80
2021/06/22 06:24:45;;;;;;;11.93;6.90;;;14.40;99.90;;;;;;5091445;28;20040;-78
2021/06/22 06:27:17;;;;;;;13.65;7.38;;;14.70;99.90;;;;;;5089437;28;20044;-78
2021/06/22 06:29:58;;;;;;;10.80;6.55;;;14.80;99.90;;;;;;5077831;28;20067;-81
2021/06/22 06:32:24;;;;;;;11.57;6.25;;;14.70;99.90;;;;;;5089581;28;20224;-78
2021/06/22 06:34:50;;;;;;;12.73;5.93;;;14.70;99.90;;;;;;5091774;28;20036;-77
2021/06/22 06:37:17;;;;;;;12.85;6.43;;;14.70;99.90;;;;;;5060180;28;20474;-77
2021/06/22 06:39:43;;;;;;;8.85;5.47;;;14.80;99.90;;;;;;5090978;28;20044;-77
2021/06/22 06:42:09;;;;;;;8.10;4.93;;;15.10;99.90;;;;;;5090293;28;20032;-79
2021/06/22 06:44:36;;;;;;;9.85;5.30;;;15.40;99.90;;;;;;5092082;28;20070;-79
2021/06/22 06:47:04;;;;;;;10.43;5.15;;;15.70;99.90;;;;;;5091035;28;20436;-79
2021/06/22 06:49:30;;;;;;;9.82;5.05;;;15.60;99.90;;;;;;5091547;28;20036;-77
2021/06/22 06:51:56;;;;;;;10.13;5.32;;;15.60;99.90;;;;;;5091367;28;20455;-81
2021/06/22 06:54:22;;;;;;;9.50;5.05;;;15.60;99.90;;;;;;5064604;28;20051;-79
2021/06/22 06:56:48;;;;;;;14.35;5.10;;;15.60;99.90;;;;;;5038633;28;20044;-79
2021/06/22 06:59:14;;;;;;;;;;;15.50;99.90;;;;;;5086102;28;20124;-75
2021/06/22 07:01:40;;;;;;;12.88;4.68;;;15.50;99.90;;;;;;5086429;28;19922;-76
2021/06/22 07:04:06;;;;;;;;;;;15.70;99.90;;;;;;5091301;28;20032;-77
2021/06/22 07:06:32;;;;;;;15.70;5.20;;;15.90;99.90;;;;;;5091229;28;19923;-80
2021/06/22 07:09:00;;;;;;;11.43;4.90;;;16.20;99.90;;;;;;5080697;28;20041;-77
2021/06/22 07:11:27;;;;;;;6.00;4.70;;;16.40;99.90;;;;;;5086867;28;20390;-79
2021/06/22 07:13:54;;;;;;;11.55;4.47;;;16.60;99.90;;;;;;5050452;28;20067;-78
2021/06/22 07:16:19;;;;;;;7.75;4.22;;;16.80;99.90;;;;;;5044018;28;20070;-80
2021/06/22 07:18:47;;;;;;;11.45;4.82;;;17.00;99.90;;;;;;5095424;28;20402;-76
2021/06/22 07:21:13;;;;;;;7.88;4.38;;;17.30;99.90;;;;;;5094607;28;20043;-78
2021/06/22 07:23:39;;;;;;;;;;;17.40;99.90;;;;;;5096149;28;20146;-78
2021/06/22 07:26:05;;;;;;;11.98;4.45;;;17.30;99.90;;;;;;5086532;28;20026;-77
2021/06/22 07:28:31;;;;;;;;;;;17.10;99.90;;;;;;5066812;28;20416;-81
2021/06/22 07:30:57;;;;;;;7.65;4.50;;;16.80;99.90;;;;;;5091157;28;20437;-79
2021/06/22 07:33:23;;;;;;;;;;;16.60;99.90;;;;;;5093355;28;20119;-77
2021/06/22 07:35:49;;;;;;;9.52;4.60;;;16.40;99.90;;;;;;5094026;28;19920;-77
2021/06/22 07:38:15;;;;;;;9.48;4.35;;;16.30;99.90;;;;;;5076451;28;20073;-77
2021/06/22 07:40:54;;;;;;;7.53;3.97;;;16.20;99.90;;;;;;5100604;28;20442;-76
2021/06/22 07:43:21;;;;;;;11.23;4.65;;;16.10;99.90;;;;;;5066148;28;20170;-80
2021/06/22 07:45:47;;;;;;;;;;;16.00;99.90;;;;;;5094718;28;20068;-77
2021/06/22 07:48:13;;;;;;;7.82;4.30;;;15.90;99.90;;;;;;5076267;28;19920;-77
2021/06/22 07:50:39;;;;;;;7.70;4.30;;;15.80;99.90;;;;;;5093849;28;20043;-78
2021/06/22 07:53:05;;;;;;;10.00;4.60;;;15.80;99.90;;;;;;5063687;28;20040;-78
2021/06/22 07:55:34;;;;;;;8.35;3.75;;;15.80;99.90;;;;;;5040043;28;20040;-79
2021/06/22 07:58:00;;;;;;;8.65;4.00;;;15.70;99.90;;;;;;5092172;28;20480;-76
2021/06/22 08:00:44;;;;;;;8.05;3.70;;;15.60;99.90;;;;;;5076821;28;20113;-80
2021/06/22 08:03:13;;;;;;;12.55;3.70;;;15.50;99.90;;;;;;5092848;28;20044;-78
2021/06/22 08:05:42;;;;;;;6.03;3.63;;;15.50;99.90;;;;;;5093509;28;20040;-77
2021/06/22 08:08:09;;;;;;;10.07;3.97;;;15.40;99.90;;;;;;5090525;28;20121;-76
2021/06/22 08:10:35;;;;;;;6.30;3.42;;;15.40;99.90;;;;;;5081931;28;20047;-76
2021/06/22 08:13:02;;;;;;;6.75;3.42;;;15.60;99.90;;;;;;5093848;28;20485;-77
2021/06/22 08:15:29;;;;;;;8.65;3.38;;;16.10;99.90;;;;;;5067060;28;20041;-78
2021/06/22 08:17:55;;;;;;;5.30;3.45;;;16.50;99.90;;;;;;5089932;28;20119;-76
2021/06/22 08:20:21;;;;;;;7.45;3.53;;;16.90;99.90;;;;;;5092530;28;20036;-81
2021/06/22 08:22:52;;;;;;;7.30;3.38;;;17.10;99.90;;;;;;5075233;28;20048;-77
2021/06/22 08:25:21;;;;;;;6.80;4.35;;;17.30;99.90;;;;;;5087901;28;20037;-77
2021/06/22 08:27:47;;;;;;;4.75;2.92;;;17.40;99.90;;;;;;5072953;28;20485;-79
2021/06/22 08:30:13;;;;;;;;;;;17.40;99.90;;;;;;5094035;28;20040;-80
2021/06/22 08:32:38;;;;;;;5.97;3.40;;;17.40;99.90;;;;;;5093810;28;19939;-79
2021/06/22 08:35:04;;;;;;;;;;;17.50;99.90;;;;;;5093834;28;20044;-78
2021/06/22 08:37:30;;;;;;;7.80;3.50;;;17.50;99.90;;;;;;5093289;28;19916;-81
2021/06/22 08:39:56;;;;;;;11.18;4.18;;;17.50;99.90;;;;;;5041293;28;20079;-80
2021/06/22 08:42:23;;;;;;;;;;;17.60;99.90;;;;;;5058599;28;20438;-79
2021/06/22 08:44:50;;;;;;;7.72;4.20;;;17.40;99.90;;;;;;5098924;28;19981;-79
2021/06/22 08:47:24;;;;;;;12.15;3.95;;;17.30;99.90;;;;;;5093453;28;20074;-78
2021/06/22 08:49:55;;;;;;;7.55;3.75;;;17.20;99.90;;;;;;5092707;28;20043;-80
2021/06/22 08:52:26;;;;;;;8.02;3.80;;;17.00;99.90;;;;;;5092657;28;20142;-79
2021/06/22 08:54:53;;;;;;;9.68;3.75;;;17.10;99.90;;;;;;5093744;28;20399;-80
2021/06/22 08:57:23;;;;;;;7.97;3.78;;;17.20;99.90;;;;;;5074673;28;20032;-79
2021/06/22 08:59:50;;;;;;;7.65;4.18;;;17.30;99.90;;;;;;5083759;28;20033;-78
2021/06/22 09:02:24;;;;;;;6.03;4.25;;;17.30;99.90;;;;;;5092907;28;20091;-77
2021/06/22 09:04:50;;;;;;;9.00;4.60;;;17.40;99.90;;;;;;5093401;28;20043;-76
2021/06/22 09:07:42;;;;;;;7.68;4.22;;;17.30;99.90;;;;;;5092619;28;20032;-78
2021/06/22 09:10:09;;;;;;;10.55;4.35;;;17.30;99.90;;;;;;5066290;28;20059;-77
2021/06/22 09:12:34;;;;;;;7.72;4.38;;;17.10;99.90;;;;;;5093037;28;20051;-78
2021/06/22 09:15:00;;;;;;;9.98;4.40;;;16.80;99.90;;;;;;5054853;28;20032;-79
2021/06/22 09:17:35;;;;;;;;;;;16.70;99.90;;;;;;5086185;28;20051;-78
2021/06/22 09:20:01;;;;;;;10.43;4.75;;;16.60;99.90;;;;;;5091531;28;19964;-78
2021/06/22 09:22:28;;;;;;;7.15;4.07;;;16.70;99.90;;;;;;5091538;28;20044;-78
2021/06/22 09:25:01;;;;;;;9.07;4.50;;;16.80;99.90;;;;;;5092256;28;20542;-79
2021/06/22 09:27:53;;;;;;;8.68;4.20;;;16.70;99.90;;;;;;5074216;28;20107;-78
2021/06/22 09:30:37;;;;;;;8.93;4.57;;;16.90;99.90;;;;;;5062992;28;20109;-77
2021/06/22 09:33:24;;;;;;;10.40;4.28;;;17.00;99.90;;;;;;5085076;28;20427;-80
2021/06/22 09:35:59;;;;;;;10.95;4.68;;;17.10;99.90;;;;;;5091239;28;20439;-80
2021/06/22 09:38:28;;;;;;;10.20;4.47;;;17.20;99.90;;;;;;5074063;28;20047;-78
2021/06/22 09:41:13;;;;;;;11.63;4.50;;;17.00;99.90;;;;;;5065667;28;20048;-78
2021/06/22 09:44:06;;;;;;;11.93;4.80;;;16.90;99.90;;;;;;5087873;28;20043;-76
2021/06/22 09:46:37;;;;;;;8.82;4.43;;;16.80;99.90;;;;;;5020494;28;20450;-78
2021/06/22 09:49:13;;;;;;;9.27;4.35;;;16.70;99.90;;;;;;5091858;28;20032;-79
2021/06/22 09:52:08;;;;;;;10.45;4.45;;;16.70;99.90;;;;;;5060402;28;20037;-79
2021/06/22 09:54:44;;;;;;;13.20;4.95;;;16.80;99.90;;;;;;5092760;28;20036;-77
2021/06/22 09:57:18;;;;;;;10.88;4.93;;;17.00;99.90;;;;;;5090949;28;20488;-77
2021/06/22 09:59:51;;;;;;;10.52;4.80;;;17.10;99.90;;;;;;5092323;28;20393;-78
2021/06/22 10:02:18;;;;;;;10.20;4.40;;;17.10;99.90;;;;;;5092267;28;20040;-78
2021/06/22 10:04:46;;;;;;;7.03;4.75;;;17.10;99.90;;;;;;5061251;28;20040;-79
2021/06/22 10:07:14;;;;;;;6.85;4.38;;;17.20;99.90;;;;;;5091183;28;20105;-79
2021/06/22 10:09:40;;;;;;;12.30;5.10;;;17.20;99.90;;;;;;5059624;28;20363;-77
2021/06/22 10:12:11;;;;;;;;;;;17.20;99.90;;;;;;5064628;28;20108;-77
2021/06/22 10:14:39;;;;;;;8.90;4.78;;;17.00;99.90;;;;;;5069493;28;20361;-80
2021/06/22 10:17:08;;;;;;;14.93;5.32;;;17.30;99.90;;;;;;5074057;28;20105;-77
2021/06/22 10:19:36;;;;;;;10.20;4.97;;;17.40;99.10;;;;;;5091425;28;20075;-79
2021/06/22 10:22:05;;;;;;;12.63;5.00;;;17.40;99.50;;;;;;5071980;28;20093;-78
2021/06/22 10:24:33;;;;;;;11.00;5.00;;;17.50;99.20;;;;;;5091869;28;20385;-77
2021/06/22 10:27:00;;;;;;;8.43;5.13;;;17.60;98.50;;;;;;5054404;28;20115;-80
2021/06/22 10:29:28;;;;;;;8.00;4.70;;;17.70;98.40;;;;;;5090426;28;20089;-80
2021/06/22 10:31:58;;;;;;;11.40;5.13;;;17.70;98.80;;;;;;5091794;28;20044;-80
2021/06/22 10:34:24;;;;;;;8.93;5.22;;;17.60;98.50;;;;;;5089425;28;20051;-77
2021/06/22 10:37:01;;;;;;;9.25;4.80;;;17.50;98.60;;;;;;5091041;28;20456;-77
2021/06/22 10:39:52;;;;;;;12.65;5.32;;;17.40;98.80;;;;;;5091236;28;20044;-81
2021/06/22 10:42:19;;;;;;;10.18;6.00;;;17.40;99.80;;;;;;5078161;28;20146;-80
2021/06/22 10:44:48;;;;;;;9.73;5.63;;;17.50;98.60;;;;;;5072742;28;20123;-80
2021/06/22 10:47:26;;;;;;;11.63;5.35;;;17.50;96.40;;;;;;5076665;28;20056;-79
2021/06/22 10:50:19;;;;;;;10.25;4.80;;;17.50;97.30;;;;;;5095524;28;20040;-81
2021/06/22 10:52:56;;;;;;;8.65;5.30;;;17.50;95.30;;;;;;5091448;28;20044;-78
2021/06/22 10:55:27;;;;;;;10.00;4.95;;;17.40;96.90;;;;;;5093947;28;20067;-78
2021/06/22 10:58:05;;;;;;;10.40;5.30;;;17.40;97.10;;;;;;5096058;28;20040;-81
2021/06/22 11:00:54;;;;;;;11.38;6.03;;;17.50;97.40;;;;;;5094694;28;20070;-78
2021/06/22 11:03:24;;;;;;;9.75;5.45;;;17.60;97.30;;;;;;5063523;28;20141;-81
2021/06/22 11:06:12;;;;;;;8.85;5.15;;;17.60;95.30;;;;;;5095172;28;20036;-80
2021/06/22 11:08:41;;;;;;;7.93;5.15;;;17.70;95.80;;;;;;5088374;28;20097;-79
2021/06/22 11:11:07;;;;;;;9.13;5.50;;;17.80;95.80;;;;;;5087319;28;20040;-77
2021/06/22 11:13:34;;;;;;;12.38;5.75;;;17.90;94.90;;;;;;5095744;28;20040;-80
2021/06/22 11:16:04;;;;;;;9.80;5.40;;;18.10;95.80;;;;;;5094934;28;20036;-79
2021/06/22 11:18:55;;;;;;;7.85;4.47;;;18.30;95.70;;;;;;5094968;28;20062;-77
2021/06/22 11:21:26;;;;;;;7.95;4.90;;;18.40;95.40;;;;;;5094055;28;20039;-77
2021/06/22 11:23:57;;;;;;;8.20;4.57;;;18.40;92.90;;;;;;5077561;28;20040;-77
2021/06/22 11:26:27;;;;;;;6.53;4.90;;;18.40;92.60;;;;;;5092935;28;20036;-77
2021/06/22 11:29:01;;;;;;;10.15;5.53;;;18.40;92.60;;;;;;5064127;28;20136;-80
2021/06/22 11:31:43;;;;;;;8.00;5.28;;;18.40;92.60;;;;;;5082691;28;20044;-78
2021/06/22 11:34:23;;;;;;;10.20;5.32;;;18.30;93.00;;;;;;5076441;28;20110;-78
2021/06/22 11:37:06;;;;;;;7.63;5.18;;;18.40;93.40;;;;;;5094744;28;20105;-77
2021/06/22 11:39:36;;;;;;;9.13;5.55;;;18.50;92.70;;;;;;5095028;28;20085;-77
2021/06/22 11:42:11;;;;;;;8.13;5.50;;;18.50;92.60;;;;;;5093720;28;20489;-79
2021/06/22 11:44:50;;;;;;;8.00;5.80;;;18.50;92.10;;;;;;5094735;28;20044;-79
2021/06/22 11:47:25;;;;;;;10.60;5.38;;;18.60;91.90;;;;;;5094287;28;20056;-80
2021/06/22 11:49:53;;;;;;;10.35;6.03;;;18.80;91.40;;;;;;5094548;28;20044;-77
2021/06/22 11:52:21;;;;;;;10.45;5.60;;;18.60;91.60;;;;;;5093819;28;20062;-79
2021/06/22 11:54:52;;;;;;;6.60;5.53;;;18.60;90.80;;;;;;5094510;28;20044;-79
2021/06/22 11:57:29;;;;;;;7.57;4.82;;;18.60;91.30;;;;;;5079854;28;20461;-79
2021/06/22 12:00:06;;;;;;;15.00;5.68;;;18.60;87.60;;;;;;5076589;28;20066;-80
2021/06/22 12:02:32;;;;;;;9.73;6.03;;;18.50;86.40;;;;;;5094982;28;20043;-79
2021/06/22 12:05:07;;;;;;;;;;;18.30;87.90;;;;;;5076258;28;20469;-79
2021/06/22 12:07:49;;;;;;;10.00;5.35;;;18.20;86.90;;;;;;5094427;28;19916;-77
2021/06/22 12:10:16;;;;;;;9.32;5.65;;;18.20;88.70;;;;;;5079605;28;20044;-77
2021/06/22 12:12:43;;;;;;;9.65;5.70;;;18.30;87.70;;;;;;5059365;28;20385;-77
2021/06/22 12:15:09;;;;;;;10.98;5.72;;;18.30;87.00;;;;;;5063148;28;20222;-77
2021/06/22 12:17:35;;;;;;;9.55;5.28;;;18.30;86.30;;;;;;5093611;28;20052;-77
2021/06/22 12:20:01;;;;;;;;;;;18.40;87.00;;;;;;5058637;28;20119;-79
2021/06/22 12:22:27;;;;;;;11.32;5.90;;;18.40;88.00;;;;;;5074653;28;20368;-78
2021/06/22 12:24:52;;;;;;;;;;;18.40;88.40;;;;;;5075345;28;20040;-77
2021/06/22 12:27:18;;;;;;;6.22;5.43;;;18.50;90.00;;;;;;5085658;28;19926;-78
2021/06/22 12:29:44;;;;;;;;;;;18.60;87.90;;;;;;5059434;28;20040;-80
2021/06/22 12:32:11;;;;;;;7.95;5.38;;;18.90;87.70;;;;;;5093046;28;19920;-78
2021/06/22 12:34:42;;;;;;;10.02;5.75;;;19.10;86.30;;;;;;5093638;28;20036;-80
2021/06/22 12:37:19;;;;;;;8.93;5.80;;;19.00;85.00;;;;;;5093275;28;20481;-78
2021/06/22 12:39:45;;;;;;;7.32;5.60;;;19.00;81.80;;;;;;5093351;28;20054;-80
2021/06/22 12:42:11;;;;;;;;;;;18.80;83.10;;;;;;5092981;28;20036;-79
2021/06/22 12:44:38;;;;;;;6.70;5.28;;;18.80;84.00;;;;;;5093801;28;19966;-80
2021/06/22 12:47:08;;;;;;;8.90;5.57;;;18.90;80.80;;;;;;5075159;28;20127;-80
2021/06/22 12:49:39;;;;;;;8.40;5.80;;;18.90;80.40;;;;;;5074624;28;20040;-78
2021/06/22 12:52:07;;;;;;;9.95;5.93;;;18.90;80.10;;;;;;5071066;28;20036;-79